sensor_id;sensor_type;location;lat;lon;timestamp;pressure;altitude;pressure_sealevel;temperature;humidity
62697;BME280;48761;42.680;23.312;2023-01-29T00:02:21;94935.00;;;0.19;82.02
62697;BME280;48761;42.680;23.312;2023-01-29T00:04:47;94927.13;;;0.21;81.37
62697;BME280;48761;42.680;23.312;2023-01-29T00:07:13;94916.13;;;0.08;81.44
62697;BME280;48761;42.680;23.312;2023-01-29T00:09:39;94947.50;;;0.08;81.80
62697;BME280;48761;42.680;23.312;2023-01-29T00:12:05;94937.91;;;0.08;82.04
62697;BME280;48761;42.680;23.312;2023-01-29T00:14:31;94932.22;;;-0.06;82.05
62697;BME280;48761;42.680;23.312;2023-01-29T00:16:57;94933.47;;;0.12;82.14
62697;BME280;48761;42.680;23.312;2023-01-29T00:19:23;94911.69;;;0.12;81.56
62697;BME280;48761;42.680;23.312;2023-01-29T00:21:49;94951.56;;;0.20;81.93
62697;BME280;48761;42.680;23.312;2023-01-29T00:24:15;94959.75;;;0.39;81.34
62697;BME280;48761;42.680;23.312;2023-01-29T00:26:40;94963.09;;;0.13;82.19
62697;BME280;48761;42.680;23.312;2023-01-29T00:29:06;94927.88;;;-0.07;82.05
62697;BME280;48761;42.680;23.312;2023-01-29T00:31:32;94941.44;;;0.07;81.99
62697;BME280;48761;42.680;23.312;2023-01-29T00:33:58;94952.50;;;0.17;82.09
62697;BME280;48761;42.680;23.312;2023-01-29T00:36:25;94944.78;;;0.13;82.02
62697;BME280;48761;42.680;23.312;2023-01-29T00:38:56;94937.56;;;0.21;81.49
62697;BME280;48761;42.680;23.312;2023-01-29T00:41:26;94920.59;;;0.04;81.33
62697;BME280;48761;42.680;23.312;2023-01-29T00:43:52;94944.78;;;0.13;81.63
62697;BME280;48761;42.680;23.312;2023-01-29T00:46:18;94964.25;;;0.34;81.82
62697;BME280;48761;42.680;23.312;2023-01-29T00:48:45;94932.59;;;0.12;81.85
62697;BME280;48761;42.680;23.312;2023-01-29T00:51:10;94964.38;;;0.29;81.42
62697;BME280;48761;42.680;23.312;2023-01-29T00:53:36;94967.06;;;0.26;82.07
62697;BME280;48761;42.680;23.312;2023-01-29T00:56:02;94934.56;;;0.03;82.04
62697;BME280;48761;42.680;23.312;2023-01-29T00:58:28;94958.75;;;0.12;82.80
62697;BME280;48761;42.680;23.312;2023-01-29T01:00:55;94937.38;;;-0.05;83.21
62697;BME280;48761;42.680;23.312;2023-01-29T01:03:21;94944.66;;;-0.16;84.04
62697;BME280;48761;42.680;23.312;2023-01-29T01:05:47;94959.94;;;-0.01;84.06
62697;BME280;48761;42.680;23.312;2023-01-29T01:08:13;94965.38;;;-0.08;85.00
62697;BME280;48761;42.680;23.312;2023-01-29T01:10:39;94968.31;;;-0.21;85.13
62697;BME280;48761;42.680;23.312;2023-01-29T01:13:05;94956.19;;;-0.25;85.44
62697;BME280;48761;42.680;23.312;2023-01-29T01:15:35;94923.72;;;-0.48;85.79
62697;BME280;48761;42.680;23.312;2023-01-29T01:18:02;94962.28;;;-0.23;85.62
62697;BME280;48761;42.680;23.312;2023-01-29T01:20:31;94963.94;;;-0.20;85.65
62697;BME280;48761;42.680;23.312;2023-01-29T01:22:58;94964.16;;;-0.30;85.81
62697;BME280;48761;42.680;23.312;2023-01-29T01:25:25;94963.34;;;-0.30;85.88
62697;BME280;48761;42.680;23.312;2023-01-29T01:27:52;94962.84;;;-0.12;85.67
62697;BME280;48761;42.680;23.312;2023-01-29T01:30:19;94964.38;;;-0.04;85.09
62697;BME280;48761;42.680;23.312;2023-01-29T01:32:47;94958.91;;;0.05;84.35
62697;BME280;48761;42.680;23.312;2023-01-29T01:35:14;94963.25;;;0.06;84.71
62697;BME280;48761;42.680;23.312;2023-01-29T01:37:40;94965.88;;;0.06;84.48
62697;BME280;48761;42.680;23.312;2023-01-29T01:40:12;94955.72;;;-0.06;84.60
62697;BME280;48761;42.680;23.312;2023-01-29T01:42:39;94889.94;;;-0.56;84.70
62697;BME280;48761;42.680;23.312;2023-01-29T01:45:07;94929.44;;;-0.35;85.06
62697;BME280;48761;42.680;23.312;2023-01-29T01:47:46;94916.44;;;-0.37;84.73
62697;BME280;48761;42.680;23.312;2023-01-29T01:50:38;94928.03;;;-0.47;84.92
62697;BME280;48761;42.680;23.312;2023-01-29T01:53:07;94968.13;;;-0.15;84.69
62697;BME280;48761;42.680;23.312;2023-01-29T01:55:37;94956.75;;;-0.12;84.69
62697;BME280;48761;42.680;23.312;2023-01-29T01:58:09;94976.91;;;-0.16;85.11
62697;BME280;48761;42.680;23.312;2023-01-29T02:00:36;94976.97;;;-0.19;85.32
62697;BME280;48761;42.680;23.312;2023-01-29T02:03:03;94989.03;;;-0.15;85.75
62697;BME280;48761;42.680;23.312;2023-01-29T02:05:31;94982.00;;;-0.13;86.37
62697;BME280;48761;42.680;23.312;2023-01-29T02:07:58;94973.53;;;-0.21;86.17
62697;BME280;48761;42.680;23.312;2023-01-29T02:10:25;94965.03;;;-0.29;87.18
62697;BME280;48761;42.680;23.312;2023-01-29T02:12:52;94974.47;;;-0.24;87.14
62697;BME280;48761;42.680;23.312;2023-01-29T02:15:18;94971.34;;;-0.03;86.87
62697;BME280;48761;42.680;23.312;2023-01-29T02:17:44;94951.28;;;-0.38;86.75
62697;BME280;48761;42.680;23.312;2023-01-29T02:20:28;94977.75;;;-0.15;86.71
62697;BME280;48761;42.680;23.312;2023-01-29T02:31:38;94980.75;;;0.03;86.37
62697;BME280;48761;42.680;23.312;2023-01-29T02:34:14;94945.34;;;-0.09;86.01
62697;BME280;48761;42.680;23.312;2023-01-29T02:37:04;94985.22;;;-0.01;86.27
62697;BME280;48761;42.680;23.312;2023-01-29T02:39:50;94977.09;;;0.10;85.65
62697;BME280;48761;42.680;23.312;2023-01-29T02:42:27;94971.09;;;0.06;86.06
62697;BME280;48761;42.680;23.312;2023-01-29T02:45:23;94995.63;;;0.02;86.45
62697;BME280;48761;42.680;23.312;2023-01-29T02:48:00;94976.06;;;-0.18;86.52
62697;BME280;48761;42.680;23.312;2023-01-29T02:50:48;94983.69;;;-0.08;86.24
62697;BME280;48761;42.680;23.312;2023-01-29T02:53:36;94995.81;;;-0.07;86.53
62697;BME280;48761;42.680;23.312;2023-01-29T02:56:40;94993.22;;;0.26;86.37
62697;BME280;48761;42.680;23.312;2023-01-29T02:59:04;94996.91;;;0.19;86.36
62697;BME280;48761;42.680;23.312;2023-01-29T03:01:37;95000.41;;;0.18;85.90
62697;BME280;48761;42.680;23.312;2023-01-29T03:04:10;94996.75;;;0.25;86.26
62697;BME280;48761;42.680;23.312;2023-01-29T03:06:44;94987.63;;;0.40;85.93
62697;BME280;48761;42.680;23.312;2023-01-29T03:09:27;94999.25;;;0.28;85.88
62697;BME280;48761;42.680;23.312;2023-01-29T03:11:57;94992.34;;;0.27;85.34
62697;BME280;48761;42.680;23.312;2023-01-29T03:14:36;94961.75;;;0.29;84.99
62697;BME280;48761;42.680;23.312;2023-01-29T03:17:05;94999.50;;;0.52;84.70
62697;BME280;48761;42.680;23.312;2023-01-29T03:19:40;94987.00;;;0.30;85.42
62697;BME280;48761;42.680;23.312;2023-01-29T03:22:09;94993.06;;;0.32;85.53
62697;BME280;48761;42.680;23.312;2023-01-29T03:24:56;95007.84;;;0.33;86.10
62697;BME280;48761;42.680;23.312;2023-01-29T03:27:26;94962.53;;;0.33;85.38
62697;BME280;48761;42.680;23.312;2023-01-29T03:29:54;95006.28;;;0.60;85.34
62697;BME280;48761;42.680;23.312;2023-01-29T03:32:22;95009.78;;;0.59;85.08
62697;BME280;48761;42.680;23.312;2023-01-29T03:34:55;95005.47;;;0.58;84.96
62697;BME280;48761;42.680;23.312;2023-01-29T03:37:26;95004.38;;;0.65;84.41
62697;BME280;48761;42.680;23.312;2023-01-29T03:39:54;94997.50;;;0.61;84.31
62697;BME280;48761;42.680;23.312;2023-01-29T03:44:56;95010.31;;;0.40;84.69
62697;BME280;48761;42.680;23.312;2023-01-29T03:52:58;95002.34;;;0.44;84.75
62697;BME280;48761;42.680;23.312;2023-01-29T03:55:35;95003.34;;;0.39;84.68
62697;BME280;48761;42.680;23.312;2023-01-29T03:58:54;94985.97;;;0.38;84.57
62697;BME280;48761;42.680;23.312;2023-01-29T04:01:17;94994.00;;;0.30;84.51
62697;BME280;48761;42.680;23.312;2023-01-29T04:06:22;94971.75;;;0.15;84.64
62697;BME280;48761;42.680;23.312;2023-01-29T04:11:17;94972.38;;;0.23;85.06
62697;BME280;48761;42.680;23.312;2023-01-29T04:13:45;95010.47;;;0.33;85.70
62697;BME280;48761;42.680;23.312;2023-01-29T04:16:24;95017.09;;;0.46;85.54
62697;BME280;48761;42.680;23.312;2023-01-29T04:18:52;95006.81;;;0.07;86.00
62697;BME280;48761;42.680;23.312;2023-01-29T04:21:18;94979.25;;;-0.06;86.46
62697;BME280;48761;42.680;23.312;2023-01-29T04:23:44;95010.88;;;0.18;86.02
62697;BME280;48761;42.680;23.312;2023-01-29T04:26:32;95012.88;;;0.41;85.33
62697;BME280;48761;42.680;23.312;2023-01-29T04:29:16;95023.59;;;0.32;85.73
62697;BME280;48761;42.680;23.312;2023-01-29T04:43:25;95024.28;;;0.39;85.05
62697;BME280;48761;42.680;23.312;2023-01-29T04:46:13;95025.75;;;0.49;84.79
62697;BME280;48761;42.680;23.312;2023-01-29T04:49:09;95025.81;;;0.46;84.72
62697;BME280;48761;42.680;23.312;2023-01-29T04:51:46;95021.44;;;0.47;84.55
62697;BME280;48761;42.680;23.312;2023-01-29T04:57:15;95029.88;;;0.25;84.80
62697;BME280;48761;42.680;23.312;2023-01-29T04:59:47;95012.78;;;0.13;84.56
62697;BME280;48761;42.680;23.312;2023-01-29T05:02:16;95034.50;;;0.15;85.71
62697;BME280;48761;42.680;23.312;2023-01-29T05:04:44;95031.34;;;0.02;85.95
62697;BME280;48761;42.680;23.312;2023-01-29T05:07:13;95029.41;;;0.10;85.69
62697;BME280;48761;42.680;23.312;2023-01-29T05:09:43;95037.53;;;0.32;85.31
62697;BME280;48761;42.680;23.312;2023-01-29T05:12:11;95024.69;;;0.23;85.05
62697;BME280;48761;42.680;23.312;2023-01-29T05:14:41;95032.19;;;0.37;84.91
62697;BME280;48761;42.680;23.312;2023-01-29T05:17:13;95047.66;;;0.45;84.73
62697;BME280;48761;42.680;23.312;2023-01-29T05:19:40;95039.63;;;0.53;83.95
62697;BME280;48761;42.680;23.312;2023-01-29T05:22:08;95041.91;;;0.30;84.08
62697;BME280;48761;42.680;23.312;2023-01-29T05:24:36;95041.50;;;0.48;84.15
62697;BME280;48761;42.680;23.312;2023-01-29T05:27:02;95013.88;;;0.36;84.25
62697;BME280;48761;42.680;23.312;2023-01-29T05:29:28;95041.28;;;0.55;83.71
62697;BME280;48761;42.680;23.312;2023-01-29T05:31:54;95047.34;;;0.58;84.22
62697;BME280;48761;42.680;23.312;2023-01-29T05:34:20;95039.09;;;0.38;83.39
62697;BME280;48761;42.680;23.312;2023-01-29T05:36:45;95044.88;;;0.51;83.53
62697;BME280;48761;42.680;23.312;2023-01-29T05:39:11;95057.94;;;0.51;83.07
62697;BME280;48761;42.680;23.312;2023-01-29T05:41:37;95048.63;;;0.41;84.13
62697;BME280;48761;42.680;23.312;2023-01-29T05:44:03;95050.75;;;0.26;84.47
62697;BME280;48761;42.680;23.312;2023-01-29T05:46:29;95057.84;;;0.22;84.47
62697;BME280;48761;42.680;23.312;2023-01-29T05:48:55;95055.91;;;0.29;84.18
62697;BME280;48761;42.680;23.312;2023-01-29T05:51:21;95067.78;;;0.43;84.18
62697;BME280;48761;42.680;23.312;2023-01-29T05:53:47;95064.44;;;0.38;84.18
62697;BME280;48761;42.680;23.312;2023-01-29T05:56:13;95067.78;;;0.43;84.31
62697;BME280;48761;42.680;23.312;2023-01-29T05:58:39;95068.88;;;0.34;84.18
62697;BME280;48761;42.680;23.312;2023-01-29T06:01:16;95066.81;;;0.46;84.91
62697;BME280;48761;42.680;23.312;2023-01-29T06:03:43;95074.72;;;0.44;84.25
62697;BME280;48761;42.680;23.312;2023-01-29T06:06:10;95072.84;;;0.49;84.33
62697;BME280;48761;42.680;23.312;2023-01-29T06:08:36;95081.69;;;0.45;84.31
62697;BME280;48761;42.680;23.312;2023-01-29T06:11:02;95082.06;;;0.29;84.65
62697;BME280;48761;42.680;23.312;2023-01-29T06:13:28;95075.63;;;0.43;84.49
62697;BME280;48761;42.680;23.312;2023-01-29T06:15:54;95073.66;;;0.51;84.16
62697;BME280;48761;42.680;23.312;2023-01-29T06:18:20;95087.84;;;0.42;84.61
62697;BME280;48761;42.680;23.312;2023-01-29T06:20:46;95078.94;;;0.50;84.58
62697;BME280;48761;42.680;23.312;2023-01-29T06:23:12;95091.69;;;0.62;84.48
62697;BME280;48761;42.680;23.312;2023-01-29T06:25:38;95080.44;;;0.25;84.79
62697;BME280;48761;42.680;23.312;2023-01-29T06:28:04;95097.59;;;0.36;85.37
62697;BME280;48761;42.680;23.312;2023-01-29T06:30:29;95097.75;;;0.29;85.43
62697;BME280;48761;42.680;23.312;2023-01-29T06:32:57;95079.09;;;0.08;85.94
62697;BME280;48761;42.680;23.312;2023-01-29T06:35:26;95096.84;;;0.32;85.34
62697;BME280;48761;42.680;23.312;2023-01-29T06:37:52;95107.91;;;0.42;85.50
62697;BME280;48761;42.680;23.312;2023-01-29T06:40:18;95105.69;;;0.26;85.61
62697;BME280;48761;42.680;23.312;2023-01-29T06:42:44;95111.34;;;0.44;85.58
62697;BME280;48761;42.680;23.312;2023-01-29T06:45:10;95120.00;;;0.46;85.69
62697;BME280;48761;42.680;23.312;2023-01-29T06:47:36;95117.06;;;0.59;85.53
62697;BME280;48761;42.680;23.312;2023-01-29T06:50:03;95087.75;;;0.46;85.35
62697;BME280;48761;42.680;23.312;2023-01-29T06:52:29;95115.44;;;0.54;84.98
62697;BME280;48761;42.680;23.312;2023-01-29T06:54:55;95116.25;;;0.57;85.16
62697;BME280;48761;42.680;23.312;2023-01-29T06:57:21;95126.03;;;0.50;85.49
62697;BME280;48761;42.680;23.312;2023-01-29T06:59:47;95127.09;;;0.41;85.73
62697;BME280;48761;42.680;23.312;2023-01-29T07:02:13;95131.56;;;0.37;86.10
62697;BME280;48761;42.680;23.312;2023-01-29T07:07:24;95119.59;;;0.62;85.43
62697;BME280;48761;42.680;23.312;2023-01-29T07:09:50;95120.41;;;0.65;84.53
62697;BME280;48761;42.680;23.312;2023-01-29T07:12:16;95103.41;;;0.47;85.04
62697;BME280;48761;42.680;23.312;2023-01-29T07:14:42;95116.75;;;0.38;85.61
62697;BME280;48761;42.680;23.312;2023-01-29T07:17:08;95098.00;;;0.20;85.24
62697;BME280;48761;42.680;23.312;2023-01-29T07:19:34;95146.53;;;0.30;86.17
62697;BME280;48761;42.680;23.312;2023-01-29T07:22:00;95149.44;;;0.54;85.82
62697;BME280;48761;42.680;23.312;2023-01-29T07:24:25;95118.06;;;0.54;85.29
62697;BME280;48761;42.680;23.312;2023-01-29T07:26:51;95145.81;;;0.60;85.06
62697;BME280;48761;42.680;23.312;2023-01-29T07:29:17;95150.75;;;0.71;85.14
62697;BME280;48761;42.680;23.312;2023-01-29T07:31:43;95154.03;;;0.80;84.54
62697;BME280;48761;42.680;23.312;2023-01-29T07:34:09;95140.81;;;0.84;83.94
62697;BME280;48761;42.680;23.312;2023-01-29T07:36:35;95130.16;;;0.59;83.85
62697;BME280;48761;42.680;23.312;2023-01-29T07:39:01;95154.28;;;0.70;84.17
62697;BME280;48761;42.680;23.312;2023-01-29T07:41:27;95162.97;;;0.72;84.43
62697;BME280;48761;42.680;23.312;2023-01-29T07:43:53;95157.31;;;0.88;84.19
62697;BME280;48761;42.680;23.312;2023-01-29T07:46:19;95154.69;;;0.88;83.92
62697;BME280;48761;42.680;23.312;2023-01-29T07:48:45;95145.31;;;0.81;84.94
62697;BME280;48761;42.680;23.312;2023-01-29T07:51:11;95135.63;;;0.49;84.44
62697;BME280;48761;42.680;23.312;2023-01-29T07:53:37;95153.25;;;0.76;83.61
62697;BME280;48761;42.680;23.312;2023-01-29T07:56:03;95168.06;;;0.77;84.12
62697;BME280;48761;42.680;23.312;2023-01-29T07:58:29;95153.22;;;0.77;84.30
62697;BME280;48761;42.680;23.312;2023-01-29T08:00:55;95161.34;;;0.68;84.32
62697;BME280;48761;42.680;23.312;2023-01-29T08:03:21;95166.69;;;0.97;84.63
62697;BME280;48761;42.680;23.312;2023-01-29T08:05:46;95134.91;;;0.77;84.24
62697;BME280;48761;42.680;23.312;2023-01-29T08:08:13;95164.38;;;0.86;84.29
62697;BME280;48761;42.680;23.312;2023-01-29T08:10:40;95170.16;;;0.97;84.39
62697;BME280;48761;42.680;23.312;2023-01-29T08:13:06;95177.78;;;0.72;85.13
62697;BME280;48761;42.680;23.312;2023-01-29T08:15:33;95178.91;;;0.63;86.07
62697;BME280;48761;42.680;23.312;2023-01-29T08:18:02;95169.69;;;0.48;86.12
62697;BME280;48761;42.680;23.312;2023-01-29T08:20:28;95177.09;;;0.65;85.45
62697;BME280;48761;42.680;23.312;2023-01-29T08:23:05;95172.13;;;0.55;85.96
62697;BME280;48761;42.680;23.312;2023-01-29T08:25:32;95172.19;;;0.52;85.46
62697;BME280;48761;42.680;23.312;2023-01-29T08:27:59;95167.81;;;0.53;83.65
62697;BME280;48761;42.680;23.312;2023-01-29T08:30:30;95185.41;;;0.46;83.94
62697;BME280;48761;42.680;23.312;2023-01-29T08:32:56;95166.41;;;0.39;84.23
62697;BME280;48761;42.680;23.312;2023-01-29T08:35:23;95156.94;;;0.33;84.28
62697;BME280;48761;42.680;23.312;2023-01-29T08:38:08;95191.56;;;0.45;84.25
62697;BME280;48761;42.680;23.312;2023-01-29T08:40:34;95176.00;;;0.39;84.21
62697;BME280;48761;42.680;23.312;2023-01-29T08:43:01;95178.16;;;0.58;84.00
62697;BME280;48761;42.680;23.312;2023-01-29T08:45:29;95154.63;;;0.56;83.25
62697;BME280;48761;42.680;23.312;2023-01-29T08:47:55;95199.66;;;0.69;82.84
62697;BME280;48761;42.680;23.312;2023-01-29T08:50:21;95193.50;;;0.72;82.72
62697;BME280;48761;42.680;23.312;2023-01-29T08:52:47;95202.16;;;0.75;82.94
62697;BME280;48761;42.680;23.312;2023-01-29T08:55:19;95193.69;;;0.65;82.72
62697;BME280;48761;42.680;23.312;2023-01-29T08:57:44;95210.31;;;0.63;82.23
62697;BME280;48761;42.680;23.312;2023-01-29T09:00:11;95204.66;;;0.80;82.50
62697;BME280;48761;42.680;23.312;2023-01-29T09:02:37;95217.56;;;0.86;81.92
62697;BME280;48761;42.680;23.312;2023-01-29T09:05:05;95178.53;;;0.42;82.08
62697;BME280;48761;42.680;23.312;2023-01-29T09:07:34;95199.72;;;0.68;81.74
62697;BME280;48761;42.680;23.312;2023-01-29T09:10:01;95221.97;;;0.84;81.88
62697;BME280;48761;42.680;23.312;2023-01-29T09:12:27;95189.69;;;0.49;81.50
62697;BME280;48761;42.680;23.312;2023-01-29T09:14:53;95201.63;;;0.61;81.47
62697;BME280;48761;42.680;23.312;2023-01-29T09:17:19;95172.50;;;0.40;82.26
62697;BME280;48761;42.680;23.312;2023-01-29T09:19:45;95208.44;;;0.68;82.36
62697;BME280;48761;42.680;23.312;2023-01-29T09:22:15;95208.03;;;0.84;81.68
62697;BME280;48761;42.680;23.312;2023-01-29T09:24:41;95197.66;;;0.81;81.38
62697;BME280;48761;42.680;23.312;2023-01-29T09:27:07;95170.84;;;0.36;81.31
62697;BME280;48761;42.680;23.312;2023-01-29T09:29:33;95206.31;;;0.83;81.89
62697;BME280;48761;42.680;23.312;2023-01-29T09:31:59;95209.56;;;0.91;81.39
62697;BME280;48761;42.680;23.312;2023-01-29T09:34:25;95193.66;;;1.00;80.96
62697;BME280;48761;42.680;23.312;2023-01-29T09:36:51;95208.00;;;1.19;81.12
62697;BME280;48761;42.680;23.312;2023-01-29T09:39:17;95175.19;;;1.05;80.17
62697;BME280;48761;42.680;23.312;2023-01-29T09:42:05;95169.94;;;0.73;80.64
62697;BME280;48761;42.680;23.312;2023-01-29T09:47:18;95181.44;;;0.99;80.99
62697;BME280;48761;42.680;23.312;2023-01-29T09:49:48;95144.13;;;0.91;80.39
62697;BME280;48761;42.680;23.312;2023-01-29T09:55:25;95160.69;;;0.93;80.14
62697;BME280;48761;42.680;23.312;2023-01-29T09:58:01;95175.66;;;0.88;80.20
62697;BME280;48761;42.680;23.312;2023-01-29T10:00:53;95183.81;;;0.75;80.12
62697;BME280;48761;42.680;23.312;2023-01-29T10:09:39;95185.78;;;0.67;82.44
62697;BME280;48761;42.680;23.312;2023-01-29T10:15:37;95183.56;;;0.85;81.35
62697;BME280;48761;42.680;23.312;2023-01-29T10:26:40;95166.59;;;0.66;81.24
62697;BME280;48761;42.680;23.312;2023-01-29T10:29:07;95169.53;;;0.54;82.02
62697;BME280;48761;42.680;23.312;2023-01-29T10:31:38;95130.31;;;0.17;82.82
62697;BME280;48761;42.680;23.312;2023-01-29T10:34:22;95170.31;;;0.58;82.67
62697;BME280;48761;42.680;23.312;2023-01-29T10:36:49;95165.09;;;0.58;82.78
62697;BME280;48761;42.680;23.312;2023-01-29T10:39:20;95158.44;;;0.44;83.27
62697;BME280;48761;42.680;23.312;2023-01-29T10:42:13;95163.41;;;0.53;83.07
62697;BME280;48761;42.680;23.312;2023-01-29T10:45:04;95167.50;;;0.65;82.38
62697;BME280;48761;42.680;23.312;2023-01-29T10:47:55;95167.69;;;0.58;82.92
62697;BME280;48761;42.680;23.312;2023-01-29T10:59:36;95155.66;;;0.84;82.15
62697;BME280;48761;42.680;23.312;2023-01-29T11:02:16;95142.38;;;0.92;81.79
62697;BME280;48761;42.680;23.312;2023-01-29T11:04:43;95152.78;;;0.95;81.85
62697;BME280;48761;42.680;23.312;2023-01-29T11:07:10;95154.78;;;0.85;81.04
62697;BME280;48761;42.680;23.312;2023-01-29T11:09:56;95151.69;;;0.69;81.79
62697;BME280;48761;42.680;23.312;2023-01-29T11:12:29;95150.13;;;0.63;81.76
62697;BME280;48761;42.680;23.312;2023-01-29T11:15:11;95143.81;;;0.70;82.34
62697;BME280;48761;42.680;23.312;2023-01-29T11:18:00;95140.94;;;0.80;81.65
62697;BME280;48761;42.680;23.312;2023-01-29T11:20:28;95142.06;;;0.71;81.88
62697;BME280;48761;42.680;23.312;2023-01-29T11:22:54;95117.25;;;0.51;82.25
62697;BME280;48761;42.680;23.312;2023-01-29T11:25:21;95126.38;;;0.69;82.22
62697;BME280;48761;42.680;23.312;2023-01-29T11:27:56;95138.66;;;0.67;82.98
62697;BME280;48761;42.680;23.312;2023-01-29T11:30:24;95103.84;;;0.65;82.10
62697;BME280;48761;42.680;23.312;2023-01-29T11:32:59;95121.00;;;0.75;81.68
62697;BME280;48761;42.680;23.312;2023-01-29T11:35:32;95102.91;;;0.66;81.47
62697;BME280;48761;42.680;23.312;2023-01-29T11:38:07;95120.75;;;0.85;82.66
62697;BME280;48761;42.680;23.312;2023-01-29T11:40:40;95108.41;;;0.90;82.42
62697;BME280;48761;42.680;23.312;2023-01-29T11:45:44;95083.84;;;0.61;81.67
62697;BME280;48761;42.680;23.312;2023-01-29T11:48:19;95081.44;;;0.54;82.17
62697;BME280;48761;42.680;23.312;2023-01-29T11:50:57;95104.97;;;0.88;81.91
62697;BME280;48761;42.680;23.312;2023-01-29T11:53:35;95093.03;;;0.77;82.20
62697;BME280;48761;42.680;23.312;2023-01-29T11:56:17;95094.44;;;0.89;81.98
62697;BME280;48761;42.680;23.312;2023-01-29T11:58:45;95091.97;;;1.15;81.22
62697;BME280;48761;42.680;23.312;2023-01-29T12:01:16;95067.31;;;1.22;82.71
62697;BME280;48761;42.680;23.312;2023-01-29T12:03:49;95082.44;;;1.43;80.57
62697;BME280;48761;42.680;23.312;2023-01-29T12:06:20;95067.25;;;1.26;80.09
62697;BME280;48761;42.680;23.312;2023-01-29T12:09:01;95085.22;;;1.08;80.32
62697;BME280;48761;42.680;23.312;2023-01-29T12:11:33;95066.31;;;0.96;80.15
62697;BME280;48761;42.680;23.312;2023-01-29T12:14:04;95049.78;;;0.94;80.73
62697;BME280;48761;42.680;23.312;2023-01-29T12:21:46;95083.47;;;1.07;80.24
62697;BME280;48761;42.680;23.312;2023-01-29T12:26:59;95071.16;;;0.80;81.07
62697;BME280;48761;42.680;23.312;2023-01-29T12:29:48;95092.75;;;0.87;81.42
62697;BME280;48761;42.680;23.312;2023-01-29T12:32:42;95096.03;;;0.95;81.18
62697;BME280;48761;42.680;23.312;2023-01-29T12:35:11;95092.16;;;1.09;80.73
62697;BME280;48761;42.680;23.312;2023-01-29T12:37:55;95095.13;;;1.27;80.41
62697;BME280;48761;42.680;23.312;2023-01-29T12:40:33;95087.38;;;1.23;80.11
62697;BME280;48761;42.680;23.312;2023-01-29T12:43:08;95092.16;;;1.09;80.44
62697;BME280;48761;42.680;23.312;2023-01-29T12:45:37;95085.16;;;1.09;79.70
62697;BME280;48761;42.680;23.312;2023-01-29T12:48:11;95092.06;;;1.12;80.19
62697;BME280;48761;42.680;23.312;2023-01-29T12:50:38;95095.84;;;1.02;80.48
62697;BME280;48761;42.680;23.312;2023-01-29T12:55:52;95090.72;;;0.98;80.88
62697;BME280;48761;42.680;23.312;2023-01-29T12:58:20;95097.72;;;0.98;79.71
62697;BME280;48761;42.680;23.312;2023-01-29T13:00:50;95059.72;;;0.83;80.23
62697;BME280;48761;42.680;23.312;2023-01-29T13:03:28;95090.28;;;0.82;80.30
62697;BME280;48761;42.680;23.312;2023-01-29T13:06:11;95092.75;;;0.87;81.07
62697;BME280;48761;42.680;23.312;2023-01-29T13:08:49;95093.09;;;0.74;80.75
62697;BME280;48761;42.680;23.312;2023-01-29T13:13:51;95095.66;;;0.76;80.77
62697;BME280;48761;42.680;23.312;2023-01-29T13:16:21;95080.41;;;0.92;80.37
62697;BME280;48761;42.680;23.312;2023-01-29T13:18:53;95084.44;;;1.04;80.64
62697;BME280;48761;42.680;23.312;2023-01-29T13:21:40;95083.75;;;0.97;80.21
62697;BME280;48761;42.680;23.312;2023-01-29T13:24:22;95087.78;;;0.77;80.65
62697;BME280;48761;42.680;23.312;2023-01-29T13:26:48;95085.91;;;0.83;80.47
62697;BME280;48761;42.680;23.312;2023-01-29T13:29:26;95087.19;;;0.99;81.05
62697;BME280;48761;42.680;23.312;2023-01-29T13:31:54;95092.84;;;0.84;80.61
62697;BME280;48761;42.680;23.312;2023-01-29T13:34:24;95098.03;;;1.17;80.72
62697;BME280;48761;42.680;23.312;2023-01-29T13:36:56;95101.69;;;0.80;80.45
62697;BME280;48761;42.680;23.312;2023-01-29T13:39:27;95102.38;;;0.86;80.61
62697;BME280;48761;42.680;23.312;2023-01-29T13:41:56;95072.03;;;0.79;80.44
62697;BME280;48761;42.680;23.312;2023-01-29T13:47:02;95099.19;;;1.07;79.98
62697;BME280;48761;42.680;23.312;2023-01-29T13:49:41;95097.13;;;0.86;79.61
62697;BME280;48761;42.680;23.312;2023-01-29T13:52:29;95095.72;;;0.74;79.38
62697;BME280;48761;42.680;23.312;2023-01-29T14:10:22;95126.06;;;0.82;78.97
62697;BME280;48761;42.680;23.312;2023-01-29T14:12:51;95129.09;;;0.66;79.15
62697;BME280;48761;42.680;23.312;2023-01-29T14:15:26;95127.88;;;0.80;78.59
62697;BME280;48761;42.680;23.312;2023-01-29T14:20:50;95107.41;;;0.61;78.82
62697;BME280;48761;42.680;23.312;2023-01-29T14:25:57;95136.97;;;0.64;80.03
62697;BME280;48761;42.680;23.312;2023-01-29T14:28:27;95132.63;;;0.63;79.54
62697;BME280;48761;42.680;23.312;2023-01-29T14:30:54;95145.63;;;0.68;79.82
62697;BME280;48761;42.680;23.312;2023-01-29T14:35:52;95141.47;;;0.59;79.61
62697;BME280;48761;42.680;23.312;2023-01-29T14:38:22;95147.31;;;0.71;79.75
62697;BME280;48761;42.680;23.312;2023-01-29T14:40:50;95150.69;;;0.74;79.77
62697;BME280;48761;42.680;23.312;2023-01-29T14:43:26;95147.31;;;0.71;80.24
62697;BME280;48761;42.680;23.312;2023-01-29T14:45:52;95138.75;;;0.64;80.29
62697;BME280;48761;42.680;23.312;2023-01-29T14:48:37;95159.28;;;0.80;80.35
62697;BME280;48761;42.680;23.312;2023-01-29T14:51:15;95155.78;;;0.81;80.70
62697;BME280;48761;42.680;23.312;2023-01-29T14:54:05;95138.06;;;0.89;80.05
62697;BME280;48761;42.680;23.312;2023-01-29T14:59:25;95145.72;;;0.97;80.20
62697;BME280;48761;42.680;23.312;2023-01-29T15:01:54;95137.75;;;1.02;80.26
62697;BME280;48761;42.680;23.312;2023-01-29T15:04:46;95134.97;;;0.74;80.42
62697;BME280;48761;42.680;23.312;2023-01-29T15:07:23;95149.38;;;0.58;81.07
62697;BME280;48761;42.680;23.312;2023-01-29T15:12:48;95149.22;;;0.64;81.40
62697;BME280;48761;42.680;23.312;2023-01-29T15:15:23;95149.53;;;0.51;81.90
62697;BME280;48761;42.680;23.312;2023-01-29T15:21:10;95149.00;;;0.73;81.91
62697;BME280;48761;42.680;23.312;2023-01-29T15:23:36;95152.13;;;0.53;81.55